Time;durP1;ratioP1;P1;durP2;ratioP2;P2;SDS_P1;SDS_P2;PMS_P1;PMS_P2;Temp;Humidity;BMP_temperature;BMP_pressure;BME280_temperature;BME280_humidity;BME280_pressure;Samples;Min_cycle;Max_cycle;Signal;HPM_P1;HPM_P2
2022/11/24 00:01:39;;;;;;;;;;;;;;;;;;5034176;28;19952;-40
2022/11/24 00:04:04;;;;;;;;;;;;;;;;;;5033716;28;20367;-40
2022/11/24 00:06:30;;;;;;;;;;;;;;;;;;5033557;28;19982;-40
2022/11/24 00:08:55;;;;;;;;;;;;;;;;;;5033921;28;19963;-40
2022/11/24 00:11:20;;;;;;;;;;;;;;;;;;5033665;28;20355;-40
2022/11/24 00:13:46;;;;;;;;;;;;;;;;;;5033523;28;19912;-40
2022/11/24 00:16:11;;;;;;;;;;;;;;;;;;5033541;28;20371;-45
2022/11/24 00:18:36;;;;;;;;;;;;;;;;;;5033566;28;19909;-40
2022/11/24 00:21:01;;;;;;;;;;;;;;;;;;5033263;28;20321;-40
2022/11/24 00:23:27;;;;;;;;;;;;;;;;;;5033430;28;19905;-40
2022/11/24 00:25:52;;;;;;;;;;;;;;;;;;5033034;28;19909;-40
2022/11/24 00:28:17;;;;;;;;;;;;;;;;;;5033270;28;19928;-40
2022/11/24 00:30:43;;;;;;;;;;;;;;;;;;5033219;28;19909;-40
2022/11/24 00:33:08;;;;;;;;;;;;;;;;;;5033054;28;19912;-40
2022/11/24 00:35:33;;;;;;;;;;;;;;;;;;5033129;28;19970;-41
2022/11/24 00:37:58;;;;;;;;;;;;;;;;;;5033079;28;20263;-40
2022/11/24 00:40:23;;;;;;;;;;;;;;;;;;5033021;28;20360;-40
2022/11/24 00:42:49;;;;;;;;;;;;;;;;;;5033241;28;20355;-40
2022/11/24 00:45:14;;;;;;;;;;;;;;;;;;5032881;28;20390;-40
2022/11/24 00:47:39;;;;;;;;;;;;;;;;;;5032896;28;20050;-40
2022/11/24 00:50:04;;;;;;;;;;;;;;;;;;5032555;28;19925;-40
2022/11/24 00:52:30;;;;;;;;;;;;;;;;;;5032853;28;19912;-40
2022/11/24 00:54:55;;;;;;;;;;;;;;;;;;5032932;28;19912;-40
2022/11/24 00:57:20;;;;;;;;;;;;;;;;;;5032697;28;20328;-40
2022/11/24 00:59:45;;;;;;;;;;;;;;;;;;5032997;28;19927;-40
2022/11/24 01:02:11;;;;;;;;;;;;;;;;;;5032794;28;19979;-40
2022/11/24 01:04:36;;;;;;;;;;;;;;;;;;5032911;28;20318;-40
2022/11/24 01:07:01;;;;;;;;;;;;;;;;;;5032718;28;19967;-40
2022/11/24 01:09:26;;;;;;;;;;;;;;;;;;5032461;28;19913;-40
2022/11/24 01:12:01;;;;;;;;;;;;;;;;;;5032446;28;19905;-40
2022/11/24 01:14:26;;;;;;;;;;;;;;;;;;5032531;28;19999;-39
2022/11/24 01:16:51;;;;;;;;;;;;;;;;;;5032262;28;20018;-39
2022/11/24 01:19:17;;;;;;;;;;;;;;;;;;5032601;28;19922;-40
2022/11/24 01:21:42;;;;;;;;;;;;;;;;;;5032567;28;19943;-40
2022/11/24 01:24:07;;;;;;;;;;;;;;;;;;5032162;28;19940;-40
2022/11/24 01:26:32;;;;;;;;;;;;;;;;;;5032525;28;19958;-40
2022/11/24 01:28:57;;;;;;;;;;;;;;;;;;5032100;28;19909;-40
2022/11/24 01:31:23;;;;;;;;;;;;;;;;;;5032113;28;19905;-40
2022/11/24 01:33:48;;;;;;;;;;;;;;;;;;5032096;28;19913;-40
2022/11/24 01:36:13;;;;;;;;;;;;;;;;;;5032113;28;19912;-40
2022/11/24 01:38:38;;;;;;;;;;;;;;;;;;5031603;28;19913;-40
2022/11/24 01:41:04;;;;;;;;;;;;;;;;;;5032141;28;20334;-40
2022/11/24 01:43:29;;;;;;;;;;;;;;;;;;5032005;28;19984;-40
2022/11/24 01:45:54;;;;;;;;;;;;;;;;;;5031792;28;20000;-40
2022/11/24 01:48:20;;;;;;;;;;;;;;;;;;5032007;28;20338;-40
2022/11/24 01:50:45;;;;;;;;;;;;;;;;;;5032272;28;19920;-39
2022/11/24 01:53:10;;;;;;;;;;;;;;;;;;5031844;28;19917;-40
2022/11/24 01:55:35;;;;;;;;;;;;;;;;;;5030660;28;19948;-43
2022/11/24 01:58:01;;;;;;;;;;;;;;;;;;5032094;28;19916;-40
2022/11/24 02:00:26;;;;;;;;;;;;;;;;;;5030466;28;19917;-40
2022/11/24 02:02:51;;;;;;;;;;;;;;;;;;5031832;28;19912;-40
2022/11/24 02:05:16;;;;;;;;;;;;;;;;;;5032024;28;19951;-39
2022/11/24 02:07:42;;;;;;;;;;;;;;;;;;5031995;28;19944;-40
2022/11/24 02:10:07;;;;;;;;;;;;;;;;;;5031746;28;19905;-39
2022/11/24 02:12:32;;;;;;;;;;;;;;;;;;5031957;28;20275;-40
2022/11/24 02:14:57;;;;;;;;;;;;;;;;;;5031486;28;19905;-40
2022/11/24 02:17:23;;;;;;;;;;;;;;;;;;5030526;28;20016;-40
2022/11/24 02:19:48;;;;;;;;;;;;;;;;;;5030243;28;19924;-40
2022/11/24 02:22:13;;;;;;;;;;;;;;;;;;5030409;28;19988;-40
2022/11/24 02:24:38;;;;;;;;;;;;;;;;;;5030355;28;19916;-40
2022/11/24 02:27:04;;;;;;;;;;;;;;;;;;5031432;28;19909;-40
2022/11/24 02:29:29;;;;;;;;;;;;;;;;;;5031621;28;19909;-40
2022/11/24 02:31:54;;;;;;;;;;;;;;;;;;5031431;28;19983;-40
2022/11/24 02:34:19;;;;;;;;;;;;;;;;;;5031731;28;19909;-40
2022/11/24 02:36:45;;;;;;;;;;;;;;;;;;5031745;28;19913;-40
2022/11/24 02:39:10;;;;;;;;;;;;;;;;;;5030132;28;20278;-39
2022/11/24 02:41:35;;;;;;;;;;;;;;;;;;5031625;28;20004;-40
2022/11/24 02:44:00;;;;;;;;;;;;;;;;;;5031548;28;19943;-40
2022/11/24 02:46:26;;;;;;;;;;;;;;;;;;5031672;28;19909;-40
2022/11/24 02:48:51;;;;;;;;;;;;;;;;;;5031128;28;19970;-40
2022/11/24 02:51:16;;;;;;;;;;;;;;;;;;5033558;28;19967;-39
2022/11/24 02:53:41;;;;;;;;;;;;;;;;;;5033980;28;19912;-40
2022/11/24 02:56:07;;;;;;;;;;;;;;;;;;5034860;28;20020;-40
2022/11/24 02:58:32;;;;;;;;;;;;;;;;;;5035026;28;19909;-40
2022/11/24 03:00:58;;;;;;;;;;;;;;;;;;5034830;28;19928;-40
2022/11/24 03:03:23;;;;;;;;;;;;;;;;;;5034849;28;19912;-40
2022/11/24 03:05:49;;;;;;;;;;;;;;;;;;5034862;28;19913;-40
2022/11/24 03:08:14;;;;;;;;;;;;;;;;;;5034776;28;19905;-40
2022/11/24 03:10:39;;;;;;;;;;;;;;;;;;5034697;28;20275;-39
2022/11/24 03:13:04;;;;;;;;;;;;;;;;;;5033509;28;19913;-40
2022/11/24 03:15:30;;;;;;;;;;;;;;;;;;5034710;28;19994;-40
2022/11/24 03:17:58;;;;;;;;;;;;;;;;;;5034836;28;19912;-41
2022/11/24 03:20:23;;;;;;;;;;;;;;;;;;5034549;28;19979;-40
2022/11/24 03:22:48;;;;;;;;;;;;;;;;;;5034584;28;20423;-40
2022/11/24 03:25:13;;;;;;;;;;;;;;;;;;5034419;28;19915;-43
2022/11/24 03:27:39;;;;;;;;;;;;;;;;;;5034550;28;19959;-40
2022/11/24 03:30:04;;;;;;;;;;;;;;;;;;5034412;28;19909;-40
2022/11/24 03:32:29;;;;;;;;;;;;;;;;;;5034621;28;19995;-40
2022/11/24 03:34:54;;;;;;;;;;;;;;;;;;5034275;28;19948;-40
2022/11/24 03:37:19;;;;;;;;;;;;;;;;;;5034638;28;19909;-40
2022/11/24 03:39:45;;;;;;;;;;;;;;;;;;5034185;28;19999;-40
2022/11/24 03:42:10;;;;;;;;;;;;;;;;;;5034419;28;20295;-40
2022/11/24 03:44:35;;;;;;;;;;;;;;;;;;5034188;28;19909;-40
2022/11/24 03:47:01;;;;;;;;;;;;;;;;;;5034021;28;19909;-40
2022/11/24 03:49:26;;;;;;;;;;;;;;;;;;5034014;28;19928;-40
2022/11/24 03:51:52;;;;;;;;;;;;;;;;;;5034002;28;20624;-40
2022/11/24 03:54:18;;;;;;;;;;;;;;;;;;5033946;28;19938;-40
2022/11/24 03:56:43;;;;;;;;;;;;;;;;;;5034238;28;19905;-45
2022/11/24 03:59:08;;;;;;;;;;;;;;;;;;5034160;28;20446;-39
2022/11/24 04:01:33;;;;;;;;;;;;;;;;;;5033478;28;19920;-40
2022/11/24 04:03:59;;;;;;;;;;;;;;;;;;5034032;28;20355;-40
2022/11/24 04:06:24;;;;;;;;;;;;;;;;;;5033694;28;19955;-40
2022/11/24 04:08:49;;;;;;;;;;;;;;;;;;5034044;28;19990;-40
2022/11/24 04:12:42;;;;;;;;;;;;;;;;;;5033694;28;20465;-40
2022/11/24 04:14:00;;;;;;;;;;;;;;;;;;5033519;28;19960;-40
2022/11/24 04:16:25;;;;;;;;;;;;;;;;;;5033812;28;19952;-40
2022/11/24 04:18:50;;;;;;;;;;;;;;;;;;5033414;28;20023;-40
2022/11/24 04:21:15;;;;;;;;;;;;;;;;;;5033464;28;19950;-40
2022/11/24 04:23:41;;;;;;;;;;;;;;;;;;5033610;28;19909;-40
2022/11/24 04:26:06;;;;;;;;;;;;;;;;;;5033585;28;19905;-40
2022/11/24 04:28:32;;;;;;;;;;;;;;;;;;5033595;28;19909;-39
2022/11/24 04:30:57;;;;;;;;;;;;;;;;;;5033218;28;20288;-39
2022/11/24 04:33:22;;;;;;;;;;;;;;;;;;5033523;28;19919;-40
2022/11/24 04:35:48;;;;;;;;;;;;;;;;;;5033381;28;20012;-39
2022/11/24 04:38:13;;;;;;;;;;;;;;;;;;5033099;28;19974;-40
2022/11/24 04:40:38;;;;;;;;;;;;;;;;;;5033100;28;19913;-40
2022/11/24 04:43:03;;;;;;;;;;;;;;;;;;5032949;28;19956;-40
2022/11/24 04:45:28;;;;;;;;;;;;;;;;;;5033004;28;20377;-39
2022/11/24 04:47:54;;;;;;;;;;;;;;;;;;5031617;28;20352;-40
2022/11/24 04:50:19;;;;;;;;;;;;;;;;;;5032670;28;19928;-40
2022/11/24 04:52:45;;;;;;;;;;;;;;;;;;5033204;28;19909;-39
2022/11/24 04:55:10;;;;;;;;;;;;;;;;;;5032966;28;19913;-40
2022/11/24 04:57:35;;;;;;;;;;;;;;;;;;5032993;28;20279;-40
2022/11/24 05:00:00;;;;;;;;;;;;;;;;;;5032881;28;19909;-40
2022/11/24 05:02:25;;;;;;;;;;;;;;;;;;5032943;28;20004;-40
2022/11/24 05:04:51;;;;;;;;;;;;;;;;;;5032744;28;19952;-40
2022/11/24 05:07:16;;;;;;;;;;;;;;;;;;5032660;28;20039;-40
2022/11/24 05:12:29;;;;;;;;;;;;;;;;;;5032388;28;19937;-39
2022/11/24 05:14:55;;;;;;;;;;;;;;;;;;5032307;28;19913;-40
2022/11/24 05:17:20;;;;;;;;;;;;;;;;;;5032524;28;19916;-40
2022/11/24 05:19:45;;;;;;;;;;;;;;;;;;5032553;28;19909;-40
2022/11/24 05:22:10;;;;;;;;;;;;;;;;;;5032284;28;20330;-40
2022/11/24 05:24:35;;;;;;;;;;;;;;;;;;5032570;28;19912;-40
2022/11/24 05:27:01;;;;;;;;;;;;;;;;;;5032206;28;19913;-40
2022/11/24 05:29:26;;;;;;;;;;;;;;;;;;5032542;28;19992;-39
2022/11/24 05:31:51;;;;;;;;;;;;;;;;;;5032386;28;19921;-40
2022/11/24 05:34:17;;;;;;;;;;;;;;;;;;5032110;28;20525;-40
2022/11/24 05:36:51;;;;;;;;;;;;;;;;;;5032056;28;19962;-39
2022/11/24 05:39:17;;;;;;;;;;;;;;;;;;5032144;28;19909;-40
2022/11/24 05:41:42;;;;;;;;;;;;;;;;;;5032040;28;19912;-40
2022/11/24 05:44:07;;;;;;;;;;;;;;;;;;5031934;28;19978;-40
2022/11/24 05:46:32;;;;;;;;;;;;;;;;;;5032248;28;19909;-40
2022/11/24 05:48:57;;;;;;;;;;;;;;;;;;5031941;28;19913;-40
2022/11/24 05:51:23;;;;;;;;;;;;;;;;;;5030729;28;19955;-40
2022/11/24 05:53:48;;;;;;;;;;;;;;;;;;5032198;28;19916;-40
2022/11/24 05:56:13;;;;;;;;;;;;;;;;;;5031724;28;20007;-40
2022/11/24 05:58:38;;;;;;;;;;;;;;;;;;5031927;28;20418;-39
2022/11/24 06:01:04;;;;;;;;;;;;;;;;;;5031693;28;19945;-39
2022/11/24 06:03:29;;;;;;;;;;;;;;;;;;5031679;28;19919;-40
2022/11/24 06:05:54;;;;;;;;;;;;;;;;;;5031679;28;19992;-40
2022/11/24 06:08:19;;;;;;;;;;;;;;;;;;5031742;28;19919;-40
2022/11/24 06:10:45;;;;;;;;;;;;;;;;;;5031773;28;19905;-40
2022/11/24 06:13:10;;;;;;;;;;;;;;;;;;5031998;28;19958;-39
2022/11/24 06:15:36;;;;;;;;;;;;;;;;;;5031658;28;19992;-40
2022/11/24 06:18:01;;;;;;;;;;;;;;;;;;5031569;28;19919;-40
2022/11/24 06:20:27;;;;;;;;;;;;;;;;;;5031587;28;20008;-39
2022/11/24 06:22:52;;;;;;;;;;;;;;;;;;5031489;28;19909;-40
2022/11/24 06:25:17;;;;;;;;;;;;;;;;;;5034029;28;19916;-39
2022/11/24 06:27:43;;;;;;;;;;;;;;;;;;5035564;28;19908;-40
2022/11/24 06:30:08;;;;;;;;;;;;;;;;;;5035451;28;19912;-40
2022/11/24 06:32:34;;;;;;;;;;;;;;;;;;5035492;28;19951;-40
2022/11/24 06:34:59;;;;;;;;;;;;;;;;;;5035147;28;19905;-39
2022/11/24 06:37:25;;;;;;;;;;;;;;;;;;5035384;28;19959;-39
2022/11/24 06:39:50;;;;;;;;;;;;;;;;;;5035618;28;20007;-40
2022/11/24 06:42:17;;;;;;;;;;;;;;;;;;5035595;28;20356;-40
2022/11/24 06:44:43;;;;;;;;;;;;;;;;;;5035063;28;19905;-40
2022/11/24 06:47:08;;;;;;;;;;;;;;;;;;5033878;28;19920;-40
2022/11/24 06:49:33;;;;;;;;;;;;;;;;;;5033811;28;20426;-40
2022/11/24 06:51:58;;;;;;;;;;;;;;;;;;5035120;28;20199;-40
2022/11/24 06:54:24;;;;;;;;;;;;;;;;;;5035108;28;19932;-40
2022/11/24 06:56:49;;;;;;;;;;;;;;;;;;5035305;28;19917;-39
2022/11/24 06:59:14;;;;;;;;;;;;;;;;;;5035101;28;19905;-39
2022/11/24 07:01:40;;;;;;;;;;;;;;;;;;5034984;28;19921;-39
2022/11/24 07:04:05;;;;;;;;;;;;;;;;;;5034853;28;19916;-39
2022/11/24 07:06:30;;;;;;;;;;;;;;;;;;5035046;28;19962;-39
2022/11/24 07:08:56;;;;;;;;;;;;;;;;;;5034733;28;20362;-40
2022/11/24 07:11:21;;;;;;;;;;;;;;;;;;5034899;28;19920;-40
2022/11/24 07:13:47;;;;;;;;;;;;;;;;;;5034798;28;19915;-39
2022/11/24 07:16:12;;;;;;;;;;;;;;;;;;5034695;28;19916;-39
2022/11/24 07:18:38;;;;;;;;;;;;;;;;;;5034662;28;20030;-39
2022/11/24 07:21:03;;;;;;;;;;;;;;;;;;5034412;28;19921;-39
2022/11/24 07:23:29;;;;;;;;;;;;;;;;;;5033459;28;19913;-39
2022/11/24 07:25:55;;;;;;;;;;;;;;;;;;5034402;28;19916;-39
2022/11/24 07:28:21;;;;;;;;;;;;;;;;;;5033223;28;19955;-40
2022/11/24 07:30:46;;;;;;;;;;;;;;;;;;5034404;28;20271;-40
2022/11/24 07:33:11;;;;;;;;;;;;;;;;;;5033033;28;20432;-40
2022/11/24 07:35:37;;;;;;;;;;;;;;;;;;5033725;28;19909;-39
2022/11/24 07:38:02;;;;;;;;;;;;;;;;;;5033907;28;20275;-39
2022/11/24 07:40:28;;;;;;;;;;;;;;;;;;5033047;28;19921;-39
2022/11/24 07:42:54;;;;;;;;;;;;;;;;;;5034203;28;19909;-39
2022/11/24 07:45:24;;;;;;;;;;;;;;;;;;5034211;28;19913;-39
2022/11/24 07:47:50;;;;;;;;;;;;;;;;;;5034230;28;19967;-39
2022/11/24 07:50:15;;;;;;;;;;;;;;;;;;5032558;28;19917;-39
2022/11/24 07:52:41;;;;;;;;;;;;;;;;;;5034035;28;19944;-39
2022/11/24 07:55:06;;;;;;;;;;;;;;;;;;5032586;28;19996;-39
2022/11/24 07:57:32;;;;;;;;;;;;;;;;;;5034010;28;19959;-39
2022/11/24 07:59:57;;;;;;;;;;;;;;;;;;5034103;28;20428;-39
2022/11/24 08:02:22;;;;;;;;;;;;;;;;;;5033783;28;20438;-40
2022/11/24 08:04:48;;;;;;;;;;;;;;;;;;5034152;28;19909;-39
2022/11/24 08:07:13;;;;;;;;;;;;;;;;;;5034026;28;20397;-40
2022/11/24 08:09:38;;;;;;;;;;;;;;;;;;5033619;28;19963;-40
2022/11/24 08:12:04;;;;;;;;;;;;;;;;;;5033969;28;20310;-39
2022/11/24 08:14:29;;;;;;;;;;;;;;;;;;5033617;28;19917;-39
2022/11/24 08:16:55;;;;;;;;;;;;;;;;;;5033399;28;19920;-40
2022/11/24 08:19:20;;;;;;;;;;;;;;;;;;5033901;28;19916;-40
2022/11/24 08:21:45;;;;;;;;;;;;;;;;;;5033393;28;19913;-40
2022/11/24 08:24:14;;;;;;;;;;;;;;;;;;5033523;28;19939;-40
2022/11/24 08:26:39;;;;;;;;;;;;;;;;;;5033735;28;19958;-40
2022/11/24 08:29:04;;;;;;;;;;;;;;;;;;5033278;28;20636;-39
2022/11/24 08:31:34;;;;;;;;;;;;;;;;;;5033572;28;20547;-39
2022/11/24 08:33:59;;;;;;;;;;;;;;;;;;5033439;28;19909;-39
2022/11/24 08:36:24;;;;;;;;;;;;;;;;;;5033465;28;20378;-40
2022/11/24 08:38:50;;;;;;;;;;;;;;;;;;5033422;28;20355;-40
2022/11/24 08:41:15;;;;;;;;;;;;;;;;;;5032911;28;20291;-39
2022/11/24 08:43:40;;;;;;;;;;;;;;;;;;5033426;28;19913;-39
2022/11/24 08:46:06;;;;;;;;;;;;;;;;;;5033027;28;19999;-40
2022/11/24 08:48:31;;;;;;;;;;;;;;;;;;5032795;28;20355;-39
2022/11/24 08:50:56;;;;;;;;;;;;;;;;;;5032913;28;19909;-40
2022/11/24 08:53:22;;;;;;;;;;;;;;;;;;5032988;28;20004;-40
2022/11/24 08:55:47;;;;;;;;;;;;;;;;;;5033094;28;19944;-40
2022/11/24 08:58:13;;;;;;;;;;;;;;;;;;5032990;28;19908;-40
2022/11/24 09:00:39;;;;;;;;;;;;;;;;;;5032693;28;20322;-39
2022/11/24 09:03:04;;;;;;;;;;;;;;;;;;5032921;28;19913;-40
2022/11/24 09:05:29;;;;;;;;;;;;;;;;;;5032627;28;20405;-40
2022/11/24 09:07:55;;;;;;;;;;;;;;;;;;5032711;28;19909;-40
2022/11/24 09:10:20;;;;;;;;;;;;;;;;;;5032615;28;20275;-40
2022/11/24 09:12:45;;;;;;;;;;;;;;;;;;5032555;28;20059;-40
2022/11/24 09:15:11;;;;;;;;;;;;;;;;;;5032420;28;20496;-39
2022/11/24 09:17:37;;;;;;;;;;;;;;;;;;5032479;28;19916;-39
2022/11/24 09:20:02;;;;;;;;;;;;;;;;;;5032219;28;19920;-39
2022/11/24 09:22:27;;;;;;;;;;;;;;;;;;5032733;28;19920;-39
2022/11/24 09:24:53;;;;;;;;;;;;;;;;;;5032287;28;20275;-39
2022/11/24 09:27:18;;;;;;;;;;;;;;;;;;5032236;28;19963;-39
2022/11/24 09:29:43;;;;;;;;;;;;;;;;;;5032286;28;19931;-39
2022/11/24 09:32:09;;;;;;;;;;;;;;;;;;5032178;28;20003;-40
2022/11/24 09:34:34;;;;;;;;;;;;;;;;;;5032124;28;19959;-39
2022/11/24 09:37:00;;;;;;;;;;;;;;;;;;5032081;28;19920;-39
2022/11/24 09:39:25;;;;;;;;;;;;;;;;;;5032160;28;20465;-39
2022/11/24 09:41:51;;;;;;;;;;;;;;;;;;5031968;28;20015;-40
2022/11/24 09:44:16;;;;;;;;;;;;;;;;;;5032113;28;19971;-39
2022/11/24 09:46:43;;;;;;;;;;;;;;;;;;5032046;28;19909;-40
2022/11/24 09:49:08;;;;;;;;;;;;;;;;;;5031657;28;20422;-39
2022/11/24 09:51:33;;;;;;;;;;;;;;;;;;5032027;28;19909;-40
2022/11/24 09:53:59;;;;;;;;;;;;;;;;;;5032140;28;19963;-39
2022/11/24 09:56:24;;;;;;;;;;;;;;;;;;5031778;28;19909;-39
2022/11/24 09:58:49;;;;;;;;;;;;;;;;;;5031439;28;19909;-40
2022/11/24 10:01:15;;;;;;;;;;;;;;;;;;5031946;28;20012;-40
2022/11/24 10:03:43;;;;;;;;;;;;;;;;;;5031796;28;20264;-39
2022/11/24 10:06:09;;;;;;;;;;;;;;;;;;5031938;28;20275;-40
2022/11/24 10:08:34;;;;;;;;;;;;;;;;;;5031990;28;19905;-40
2022/11/24 10:10:59;;;;;;;;;;;;;;;;;;5031681;28;19912;-40
2022/11/24 10:13:25;;;;;;;;;;;;;;;;;;5031699;28;19951;-40
2022/11/24 10:15:50;;;;;;;;;;;;;;;;;;5030632;28;19912;-40
2022/11/24 10:18:16;;;;;;;;;;;;;;;;;;5031837;28;19912;-39
2022/11/24 10:20:41;;;;;;;;;;;;;;;;;;5031558;28;20003;-39
2022/11/24 10:23:06;;;;;;;;;;;;;;;;;;5031617;28;19931;-39
2022/11/24 10:25:32;;;;;;;;;;;;;;;;;;5031559;28;20279;-40
2022/11/24 10:27:58;;;;;;;;;;;;;;;;;;5030171;28;19963;-40
2022/11/24 10:30:24;;;;;;;;;;;;;;;;;;5031574;28;20378;-40
2022/11/24 10:32:49;;;;;;;;;;;;;;;;;;5031443;28;19913;-40
2022/11/24 10:35:14;;;;;;;;;;;;;;;;;;5031399;28;19909;-40
2022/11/24 10:37:40;;;;;;;;;;;;;;;;;;5031502;28;19913;-40
2022/11/24 10:40:05;;;;;;;;;;;;;;;;;;5031248;28;19913;-39
2022/11/24 10:42:30;;;;;;;;;;;;;;;;;;5031537;28;20375;-40
2022/11/24 10:44:56;;;;;;;;;;;;;;;;;;5031421;28;20283;-40
2022/11/24 10:47:21;;;;;;;;;;;;;;;;;;5031525;28;20355;-40
2022/11/24 10:49:46;;;;;;;;;;;;;;;;;;5031437;28;19928;-40
2022/11/24 10:52:12;;;;;;;;;;;;;;;;;;5031093;28;19962;-40
2022/11/24 10:54:38;;;;;;;;;;;;;;;;;;5031308;28;19916;-40
2022/11/24 10:57:03;;;;;;;;;;;;;;;;;;5031328;28;20378;-40
2022/11/24 10:59:29;;;;;;;;;;;;;;;;;;5030321;28;19920;-40
2022/11/24 11:01:54;;;;;;;;;;;;;;;;;;5031253;28;20004;-39
2022/11/24 11:04:19;;;;;;;;;;;;;;;;;;5031479;28;19920;-40
2022/11/24 11:06:45;;;;;;;;;;;;;;;;;;5031541;28;19940;-40
2022/11/24 11:09:10;;;;;;;;;;;;;;;;;;5031166;28;19971;-39
2022/11/24 11:11:37;;;;;;;;;;;;;;;;;;5032606;28;19905;-39
2022/11/24 11:14:02;;;;;;;;;;;;;;;;;;5034534;28;19913;-39
2022/11/24 11:16:28;;;;;;;;;;;;;;;;;;5034781;28;19909;-40
2022/11/24 11:18:53;;;;;;;;;;;;;;;;;;5034659;28;19909;-39
2022/11/24 11:21:19;;;;;;;;;;;;;;;;;;5034466;28;19913;-40
2022/11/24 11:23:44;;;;;;;;;;;;;;;;;;5034830;28;19909;-40
2022/11/24 11:26:10;;;;;;;;;;;;;;;;;;5034490;28;20395;-40
2022/11/24 11:28:35;;;;;;;;;;;;;;;;;;5034500;28;19916;-39
2022/11/24 11:31:01;;;;;;;;;;;;;;;;;;5034295;28;19936;-40
2022/11/24 11:33:27;;;;;;;;;;;;;;;;;;5034452;28;19917;-40
2022/11/24 11:35:52;;;;;;;;;;;;;;;;;;5034272;28;19972;-39
2022/11/24 11:38:17;;;;;;;;;;;;;;;;;;5034279;28;19917;-40
2022/11/24 11:40:43;;;;;;;;;;;;;;;;;;5034439;28;20381;-39
2022/11/24 11:43:08;;;;;;;;;;;;;;;;;;5034097;28;19916;-39
2022/11/24 11:45:33;;;;;;;;;;;;;;;;;;5034468;28;19904;-39
2022/11/24 11:47:59;;;;;;;;;;;;;;;;;;5034380;28;20429;-39
2022/11/24 11:50:24;;;;;;;;;;;;;;;;;;5033927;28;19921;-39
2022/11/24 11:52:50;;;;;;;;;;;;;;;;;;5034153;28;19924;-39
2022/11/24 11:55:15;;;;;;;;;;;;;;;;;;5033885;28;20363;-39
2022/11/24 11:57:41;;;;;;;;;;;;;;;;;;5033966;28;19936;-39
2022/11/24 12:00:06;;;;;;;;;;;;;;;;;;5033773;28;19915;-39
2022/11/24 12:02:31;;;;;;;;;;;;;;;;;;5033860;28;20008;-39
2022/11/24 12:04:56;;;;;;;;;;;;;;;;;;5033775;28;19905;-39
2022/11/24 12:07:22;;;;;;;;;;;;;;;;;;5033684;28;20007;-40
2022/11/24 12:09:47;;;;;;;;;;;;;;;;;;5033786;28;19952;-40
2022/11/24 12:12:12;;;;;;;;;;;;;;;;;;5033879;28;19909;-39
2022/11/24 12:14:37;;;;;;;;;;;;;;;;;;5033556;28;19979;-39
2022/11/24 12:17:03;;;;;;;;;;;;;;;;;;5033625;28;19909;-39
2022/11/24 12:19:28;;;;;;;;;;;;;;;;;;5033605;28;19915;-40
2022/11/24 12:21:54;;;;;;;;;;;;;;;;;;5033025;28;19916;-40
2022/11/24 12:24:19;;;;;;;;;;;;;;;;;;5033696;28;19909;-40
2022/11/24 12:26:45;;;;;;;;;;;;;;;;;;5033268;28;19909;-40
2022/11/24 12:29:10;;;;;;;;;;;;;;;;;;5033594;28;19909;-40
2022/11/24 12:31:35;;;;;;;;;;;;;;;;;;5032109;28;19913;-40
2022/11/24 12:34:00;;;;;;;;;;;;;;;;;;5033053;28;19909;-40
2022/11/24 12:36:26;;;;;;;;;;;;;;;;;;5033337;28;20274;-40
2022/11/24 12:38:51;;;;;;;;;;;;;;;;;;5033301;28;19965;-40
2022/11/24 12:41:17;;;;;;;;;;;;;;;;;;5033193;28;19921;-40
2022/11/24 12:43:42;;;;;;;;;;;;;;;;;;5033192;28;20424;-41
2022/11/24 12:46:07;;;;;;;;;;;;;;;;;;5033012;28;19972;-40
2022/11/24 12:48:33;;;;;;;;;;;;;;;;;;5032839;28;19920;-40
2022/11/24 12:50:58;;;;;;;;;;;;;;;;;;5033083;28;20010;-39
2022/11/24 12:53:24;;;;;;;;;;;;;;;;;;5033239;28;19967;-40
2022/11/24 12:55:50;;;;;;;;;;;;;;;;;;5032853;28;19909;-40
2022/11/24 12:58:15;;;;;;;;;;;;;;;;;;5032742;28;19912;-40
2022/11/24 13:00:40;;;;;;;;;;;;;;;;;;5032735;28;19921;-39
2022/11/24 13:03:06;;;;;;;;;;;;;;;;;;5032658;28;19966;-40
2022/11/24 13:05:31;;;;;;;;;;;;;;;;;;5032629;28;19940;-40
2022/11/24 13:07:57;;;;;;;;;;;;;;;;;;5031425;28;19905;-40
2022/11/24 13:10:23;;;;;;;;;;;;;;;;;;5032459;28;19909;-40
2022/11/24 13:12:48;;;;;;;;;;;;;;;;;;5032830;28;19909;-40
2022/11/24 13:15:14;;;;;;;;;;;;;;;;;;5032350;28;19916;-40
2022/11/24 13:17:39;;;;;;;;;;;;;;;;;;5032399;28;19917;-40
2022/11/24 13:20:05;;;;;;;;;;;;;;;;;;5032255;28;19959;-40
2022/11/24 13:22:30;;;;;;;;;;;;;;;;;;5032434;28;20371;-39
2022/11/24 13:24:56;;;;;;;;;;;;;;;;;;5032271;28;20322;-40
2022/11/24 13:27:26;;;;;;;;;;;;;;;;;;5032234;28;19910;-40
2022/11/24 13:29:51;;;;;;;;;;;;;;;;;;5032190;28;19954;-39
2022/11/24 13:32:17;;;;;;;;;;;;;;;;;;5032203;28;19909;-40
2022/11/24 13:34:44;;;;;;;;;;;;;;;;;;5031481;28;19915;-39
2022/11/24 13:37:09;;;;;;;;;;;;;;;;;;5032239;28;19905;-40
2022/11/24 13:39:34;;;;;;;;;;;;;;;;;;5032468;28;19909;-39
2022/11/24 13:42:00;;;;;;;;;;;;;;;;;;5032077;28;20330;-39
2022/11/24 13:44:25;;;;;;;;;;;;;;;;;;5031854;28;19913;-39
2022/11/24 13:46:51;;;;;;;;;;;;;;;;;;5032049;28;19908;-40
2022/11/24 13:49:16;;;;;;;;;;;;;;;;;;5031720;28;19920;-39
2022/11/24 13:51:41;;;;;;;;;;;;;;;;;;5031940;28;19905;-39
2022/11/24 13:54:07;;;;;;;;;;;;;;;;;;5032048;28;19916;-40
2022/11/24 13:56:32;;;;;;;;;;;;;;;;;;5032152;28;19909;-41
2022/11/24 13:58:58;;;;;;;;;;;;;;;;;;5031885;28;19909;-39
2022/11/24 14:01:23;;;;;;;;;;;;;;;;;;5031851;28;19955;-40
2022/11/24 14:03:48;;;;;;;;;;;;;;;;;;5031683;28;20367;-39
2022/11/24 14:06:14;;;;;;;;;;;;;;;;;;5031676;28;19933;-39
2022/11/24 14:08:39;;;;;;;;;;;;;;;;;;5031757;28;19954;-40
2022/11/24 14:11:04;;;;;;;;;;;;;;;;;;5031978;28;19905;-40
2022/11/24 14:13:33;;;;;;;;;;;;;;;;;;5031685;28;19920;-40
2022/11/24 14:15:58;;;;;;;;;;;;;;;;;;5031731;28;19909;-40
2022/11/24 14:18:24;;;;;;;;;;;;;;;;;;5031913;28;19913;-40
2022/11/24 14:20:49;;;;;;;;;;;;;;;;;;5031509;28;20011;-40
2022/11/24 14:23:14;;;;;;;;;;;;;;;;;;5032036;28;19935;-39
2022/11/24 14:25:41;;;;;;;;;;;;;;;;;;5031889;28;19931;-39
2022/11/24 14:28:06;;;;;;;;;;;;;;;;;;5031393;28;20364;-40
2022/11/24 14:30:32;;;;;;;;;;;;;;;;;;5031650;28;19920;-39
2022/11/24 14:32:57;;;;;;;;;;;;;;;;;;5031498;28;19913;-40
2022/11/24 14:35:23;;;;;;;;;;;;;;;;;;5030174;28;20019;-39
2022/11/24 14:37:48;;;;;;;;;;;;;;;;;;5031589;28;19916;-41
2022/11/24 14:40:13;;;;;;;;;;;;;;;;;;5029980;28;19913;-40
2022/11/24 14:42:39;;;;;;;;;;;;;;;;;;5031433;28;20275;-40
2022/11/24 14:45:05;;;;;;;;;;;;;;;;;;5031662;28;20348;-40
2022/11/24 14:47:30;;;;;;;;;;;;;;;;;;5035540;28;19999;-41
2022/11/24 14:49:55;;;;;;;;;;;;;;;;;;5035130;28;19943;-41
2022/11/24 14:52:21;;;;;;;;;;;;;;;;;;5033942;28;20347;-40
2022/11/24 14:54:46;;;;;;;;;;;;;;;;;;5035128;28;19940;-41
2022/11/24 14:57:11;;;;;;;;;;;;;;;;;;5035007;28;19917;-40
2022/11/24 14:59:37;;;;;;;;;;;;;;;;;;5035151;28;19912;-40
2022/11/24 15:02:02;;;;;;;;;;;;;;;;;;5035168;28;19917;-41
2022/11/24 15:04:28;;;;;;;;;;;;;;;;;;5033669;28;19909;-40
2022/11/24 15:06:53;;;;;;;;;;;;;;;;;;5035002;28;20003;-40
2022/11/24 15:09:19;;;;;;;;;;;;;;;;;;5034792;28;19931;-40
2022/11/24 15:11:44;;;;;;;;;;;;;;;;;;5033684;28;20351;-40
2022/11/24 15:14:09;;;;;;;;;;;;;;;;;;5034684;28;20047;-40
2022/11/24 15:16:35;;;;;;;;;;;;;;;;;;5035124;28;19913;-40
2022/11/24 15:19:00;;;;;;;;;;;;;;;;;;5034797;28;20363;-40
2022/11/24 15:21:25;;;;;;;;;;;;;;;;;;5034622;28;19964;-40
2022/11/24 15:23:51;;;;;;;;;;;;;;;;;;5034573;28;19909;-40
2022/11/24 15:26:16;;;;;;;;;;;;;;;;;;5034547;28;19918;-40
2022/11/24 15:28:41;;;;;;;;;;;;;;;;;;5034579;28;19912;-40
2022/11/24 15:31:07;;;;;;;;;;;;;;;;;;5034429;28;20000;-40
2022/11/24 15:33:32;;;;;;;;;;;;;;;;;;5034449;28;19909;-40
2022/11/24 15:35:58;;;;;;;;;;;;;;;;;;5034368;28;19959;-40
2022/11/24 15:38:23;;;;;;;;;;;;;;;;;;5034288;28;20274;-40
2022/11/24 15:40:48;;;;;;;;;;;;;;;;;;5034340;28;19921;-40
2022/11/24 15:43:14;;;;;;;;;;;;;;;;;;5034222;28;19931;-40
2022/11/24 15:45:39;;;;;;;;;;;;;;;;;;5034441;28;20402;-41
2022/11/24 15:48:04;;;;;;;;;;;;;;;;;;5034377;28;20004;-40
2022/11/24 15:50:30;;;;;;;;;;;;;;;;;;5033952;28;19940;-40
2022/11/24 15:52:55;;;;;;;;;;;;;;;;;;5034136;28;19944;-40
2022/11/24 15:55:21;;;;;;;;;;;;;;;;;;5033889;28;20598;-40
2022/11/24 15:57:46;;;;;;;;;;;;;;;;;;5033483;28;19912;-40
2022/11/24 16:00:12;;;;;;;;;;;;;;;;;;5034052;28;19913;-40
2022/11/24 16:02:37;;;;;;;;;;;;;;;;;;5033919;28;20359;-40
2022/11/24 16:05:02;;;;;;;;;;;;;;;;;;5033852;28;19908;-40
2022/11/24 16:07:27;;;;;;;;;;;;;;;;;;5033676;28;20280;-40
2022/11/24 16:09:53;;;;;;;;;;;;;;;;;;5033795;28;19913;-40
2022/11/24 16:12:18;;;;;;;;;;;;;;;;;;5033664;28;19948;-40
2022/11/24 16:14:43;;;;;;;;;;;;;;;;;;5033603;28;19909;-40
2022/11/24 16:17:09;;;;;;;;;;;;;;;;;;5033694;28;19909;-40
2022/11/24 16:19:34;;;;;;;;;;;;;;;;;;5033858;28;19996;-40
2022/11/24 16:22:00;;;;;;;;;;;;;;;;;;5033712;28;19920;-40
2022/11/24 16:24:25;;;;;;;;;;;;;;;;;;5033458;28;20360;-40
2022/11/24 16:26:50;;;;;;;;;;;;;;;;;;5033484;28;19905;-40
2022/11/24 16:29:16;;;;;;;;;;;;;;;;;;5033337;28;19909;-39
2022/11/24 16:31:42;;;;;;;;;;;;;;;;;;5033695;28;19916;-40
2022/11/24 16:34:07;;;;;;;;;;;;;;;;;;5033096;28;20298;-40
2022/11/24 16:36:32;;;;;;;;;;;;;;;;;;5033311;28;19908;-40